sensor_id;sensor_type;location;lat;lon;timestamp;P1;durP1;ratioP1;P2;durP2;ratioP2
24787;SDS011;12883;52.662;5.196;2022-12-24T00:01:29;3.63;;;3.63;;
24787;SDS011;12883;52.662;5.196;2022-12-24T00:03:54;3.77;;;3.77;;
24787;SDS011;12883;52.662;5.196;2022-12-24T00:06:21;2.90;;;2.90;;
24787;SDS011;12883;52.662;5.196;2022-12-24T00:08:48;4.10;;;4.10;;
24787;SDS011;12883;52.662;5.196;2022-12-24T00:11:15;4.03;;;4.03;;
24787;SDS011;12883;52.662;5.196;2022-12-24T00:13:40;4.10;;;4.10;;
24787;SDS011;12883;52.662;5.196;2022-12-24T00:16:05;4.50;;;4.50;;
24787;SDS011;12883;52.662;5.196;2022-12-24T00:18:31;4.40;;;4.40;;
24787;SDS011;12883;52.662;5.196;2022-12-24T00:20:56;5.17;;;5.07;;
24787;SDS011;12883;52.662;5.196;2022-12-24T00:23:22;6.80;;;6.70;;
24787;SDS011;12883;52.662;5.196;2022-12-24T00:25:47;8.37;;;8.17;;
24787;SDS011;12883;52.662;5.196;2022-12-24T00:28:13;8.37;;;8.17;;
24787;SDS011;12883;52.662;5.196;2022-12-24T00:30:39;9.47;;;9.27;;
24787;SDS011;12883;52.662;5.196;2022-12-24T00:33:06;9.13;;;8.93;;
24787;SDS011;12883;52.662;5.196;2022-12-24T00:35:34;8.93;;;8.73;;
24787;SDS011;12883;52.662;5.196;2022-12-24T00:38:01;9.50;;;9.30;;
24787;SDS011;12883;52.662;5.196;2022-12-24T00:40:27;10.63;;;10.43;;
24787;SDS011;12883;52.662;5.196;2022-12-24T00:42:53;9.07;;;8.87;;
24787;SDS011;12883;52.662;5.196;2022-12-24T00:45:19;9.97;;;9.77;;
24787;SDS011;12883;52.662;5.196;2022-12-24T00:47:44;10.17;;;9.90;;
24787;SDS011;12883;52.662;5.196;2022-12-24T00:50:09;10.57;;;10.37;;
24787;SDS011;12883;52.662;5.196;2022-12-24T00:52:35;10.70;;;10.40;;
24787;SDS011;12883;52.662;5.196;2022-12-24T00:55:00;10.43;;;10.23;;
24787;SDS011;12883;52.662;5.196;2022-12-24T00:57:27;10.17;;;9.97;;
24787;SDS011;12883;52.662;5.196;2022-12-24T00:59:53;9.13;;;8.93;;
24787;SDS011;12883;52.662;5.196;2022-12-24T01:02:18;9.70;;;9.50;;
24787;SDS011;12883;52.662;5.196;2022-12-24T01:04:43;10.80;;;10.57;;
24787;SDS011;12883;52.662;5.196;2022-12-24T01:07:27;11.00;;;10.80;;
24787;SDS011;12883;52.662;5.196;2022-12-24T01:09:52;9.67;;;9.47;;
24787;SDS011;12883;52.662;5.196;2022-12-24T01:12:18;10.43;;;10.23;;
24787;SDS011;12883;52.662;5.196;2022-12-24T01:14:43;10.77;;;10.50;;
24787;SDS011;12883;52.662;5.196;2022-12-24T01:17:09;10.27;;;10.07;;
24787;SDS011;12883;52.662;5.196;2022-12-24T01:19:34;10.00;;;9.80;;
24787;SDS011;12883;52.662;5.196;2022-12-24T01:22:00;10.10;;;9.90;;
24787;SDS011;12883;52.662;5.196;2022-12-24T01:24:25;12.23;;;11.93;;
24787;SDS011;12883;52.662;5.196;2022-12-24T01:26:51;11.23;;;11.00;;
24787;SDS011;12883;52.662;5.196;2022-12-24T01:29:16;9.13;;;8.93;;
24787;SDS011;12883;52.662;5.196;2022-12-24T01:31:41;10.23;;;10.03;;
24787;SDS011;12883;52.662;5.196;2022-12-24T01:34:07;11.60;;;11.30;;
24787;SDS011;12883;52.662;5.196;2022-12-24T01:36:32;10.67;;;10.47;;
24787;SDS011;12883;52.662;5.196;2022-12-24T01:38:57;10.87;;;10.67;;
24787;SDS011;12883;52.662;5.196;2022-12-24T01:41:23;11.30;;;11.10;;
24787;SDS011;12883;52.662;5.196;2022-12-24T01:44:18;9.57;;;9.37;;
24787;SDS011;12883;52.662;5.196;2022-12-24T01:46:56;8.77;;;8.57;;
24787;SDS011;12883;52.662;5.196;2022-12-24T01:49:27;9.70;;;9.50;;
24787;SDS011;12883;52.662;5.196;2022-12-24T01:51:54;9.60;;;9.40;;
24787;SDS011;12883;52.662;5.196;2022-12-24T01:54:37;10.37;;;10.17;;
24787;SDS011;12883;52.662;5.196;2022-12-24T01:57:12;10.33;;;10.13;;
24787;SDS011;12883;52.662;5.196;2022-12-24T01:59:43;9.27;;;9.07;;
24787;SDS011;12883;52.662;5.196;2022-12-24T02:02:13;10.63;;;10.33;;
24787;SDS011;12883;52.662;5.196;2022-12-24T02:04:41;10.27;;;10.07;;
24787;SDS011;12883;52.662;5.196;2022-12-24T02:07:11;10.30;;;10.10;;
24787;SDS011;12883;52.662;5.196;2022-12-24T02:09:37;9.97;;;9.77;;
24787;SDS011;12883;52.662;5.196;2022-12-24T02:12:03;9.40;;;9.20;;
24787;SDS011;12883;52.662;5.196;2022-12-24T02:14:30;9.63;;;9.43;;
24787;SDS011;12883;52.662;5.196;2022-12-24T02:17:03;10.40;;;10.20;;
24787;SDS011;12883;52.662;5.196;2022-12-24T02:23:03;11.13;;;10.93;;
24787;SDS011;12883;52.662;5.196;2022-12-24T02:31:22;10.13;;;9.93;;
24787;SDS011;12883;52.662;5.196;2022-12-24T02:34:00;10.33;;;10.13;;
24787;SDS011;12883;52.662;5.196;2022-12-24T02:36:33;10.17;;;9.97;;
24787;SDS011;12883;52.662;5.196;2022-12-24T02:39:04;9.17;;;8.97;;
24787;SDS011;12883;52.662;5.196;2022-12-24T02:41:35;10.50;;;10.20;;
24787;SDS011;12883;52.662;5.196;2022-12-24T02:44:23;10.30;;;10.10;;
24787;SDS011;12883;52.662;5.196;2022-12-24T02:46:51;10.67;;;10.47;;
24787;SDS011;12883;52.662;5.196;2022-12-24T02:49:17;10.40;;;10.20;;
24787;SDS011;12883;52.662;5.196;2022-12-24T02:51:43;11.50;;;11.30;;
24787;SDS011;12883;52.662;5.196;2022-12-24T02:54:08;10.37;;;10.17;;
24787;SDS011;12883;52.662;5.196;2022-12-24T02:56:38;10.67;;;10.47;;
24787;SDS011;12883;52.662;5.196;2022-12-24T03:10:51;10.43;;;10.13;;
24787;SDS011;12883;52.662;5.196;2022-12-24T03:13:20;9.70;;;9.50;;
24787;SDS011;12883;52.662;5.196;2022-12-24T03:15:48;11.23;;;11.03;;
24787;SDS011;12883;52.662;5.196;2022-12-24T03:18:20;11.10;;;10.90;;
24787;SDS011;12883;52.662;5.196;2022-12-24T03:21:02;11.27;;;10.97;;
24787;SDS011;12883;52.662;5.196;2022-12-24T03:23:32;9.63;;;9.43;;
24787;SDS011;12883;52.662;5.196;2022-12-24T03:25:59;11.13;;;10.83;;
24787;SDS011;12883;52.662;5.196;2022-12-24T03:28:28;11.47;;;11.27;;
24787;SDS011;12883;52.662;5.196;2022-12-24T03:30:54;11.07;;;10.83;;
24787;SDS011;12883;52.662;5.196;2022-12-24T03:33:20;11.73;;;11.53;;
24787;SDS011;12883;52.662;5.196;2022-12-24T03:35:46;10.40;;;10.20;;
24787;SDS011;12883;52.662;5.196;2022-12-24T03:38:11;12.03;;;11.73;;
24787;SDS011;12883;52.662;5.196;2022-12-24T03:40:36;9.77;;;9.57;;
24787;SDS011;12883;52.662;5.196;2022-12-24T03:43:02;8.83;;;8.63;;
24787;SDS011;12883;52.662;5.196;2022-12-24T03:45:27;9.20;;;9.00;;
24787;SDS011;12883;52.662;5.196;2022-12-24T03:47:53;10.70;;;10.50;;
24787;SDS011;12883;52.662;5.196;2022-12-24T03:50:18;10.67;;;10.37;;
24787;SDS011;12883;52.662;5.196;2022-12-24T03:52:43;10.87;;;10.67;;
24787;SDS011;12883;52.662;5.196;2022-12-24T03:55:09;10.07;;;9.87;;
24787;SDS011;12883;52.662;5.196;2022-12-24T03:57:34;10.63;;;10.43;;
24787;SDS011;12883;52.662;5.196;2022-12-24T04:00:00;10.07;;;9.87;;
24787;SDS011;12883;52.662;5.196;2022-12-24T04:02:25;10.23;;;10.03;;
24787;SDS011;12883;52.662;5.196;2022-12-24T04:04:51;11.07;;;10.87;;
24787;SDS011;12883;52.662;5.196;2022-12-24T04:07:16;10.27;;;10.03;;
24787;SDS011;12883;52.662;5.196;2022-12-24T04:09:41;10.07;;;9.77;;
24787;SDS011;12883;52.662;5.196;2022-12-24T04:12:07;10.03;;;9.83;;
24787;SDS011;12883;52.662;5.196;2022-12-24T04:14:32;10.87;;;10.67;;
24787;SDS011;12883;52.662;5.196;2022-12-24T04:16:57;9.77;;;9.57;;
24787;SDS011;12883;52.662;5.196;2022-12-24T04:19:23;9.37;;;9.17;;
24787;SDS011;12883;52.662;5.196;2022-12-24T04:21:48;10.37;;;10.07;;
24787;SDS011;12883;52.662;5.196;2022-12-24T04:24:14;10.10;;;9.90;;
24787;SDS011;12883;52.662;5.196;2022-12-24T04:26:39;9.87;;;9.67;;
24787;SDS011;12883;52.662;5.196;2022-12-24T04:29:04;9.53;;;9.33;;
24787;SDS011;12883;52.662;5.196;2022-12-24T04:31:30;9.60;;;9.40;;
24787;SDS011;12883;52.662;5.196;2022-12-24T04:33:55;11.93;;;11.63;;
24787;SDS011;12883;52.662;5.196;2022-12-24T04:36:20;10.83;;;10.60;;
24787;SDS011;12883;52.662;5.196;2022-12-24T04:38:46;9.33;;;9.13;;
24787;SDS011;12883;52.662;5.196;2022-12-24T04:41:14;10.20;;;10.00;;
24787;SDS011;12883;52.662;5.196;2022-12-24T04:43:42;9.27;;;9.07;;
24787;SDS011;12883;52.662;5.196;2022-12-24T04:46:11;10.17;;;9.97;;
24787;SDS011;12883;52.662;5.196;2022-12-24T04:48:39;10.00;;;9.80;;
24787;SDS011;12883;52.662;5.196;2022-12-24T04:51:05;12.40;;;12.17;;
24787;SDS011;12883;52.662;5.196;2022-12-24T04:53:32;10.87;;;10.67;;
24787;SDS011;12883;52.662;5.196;2022-12-24T04:55:58;10.70;;;10.50;;
24787;SDS011;12883;52.662;5.196;2022-12-24T04:58:23;12.13;;;11.83;;
24787;SDS011;12883;52.662;5.196;2022-12-24T05:00:49;10.00;;;9.80;;
24787;SDS011;12883;52.662;5.196;2022-12-24T05:03:14;9.93;;;9.73;;
24787;SDS011;12883;52.662;5.196;2022-12-24T05:05:40;10.40;;;10.20;;
24787;SDS011;12883;52.662;5.196;2022-12-24T05:08:05;10.47;;;10.27;;
24787;SDS011;12883;52.662;5.196;2022-12-24T05:10:31;10.50;;;10.30;;
24787;SDS011;12883;52.662;5.196;2022-12-24T05:12:56;10.40;;;10.20;;
24787;SDS011;12883;52.662;5.196;2022-12-24T05:15:22;8.97;;;8.77;;
24787;SDS011;12883;52.662;5.196;2022-12-24T05:17:47;10.10;;;9.90;;
24787;SDS011;12883;52.662;5.196;2022-12-24T05:20:13;9.43;;;9.23;;
24787;SDS011;12883;52.662;5.196;2022-12-24T05:22:38;9.30;;;9.10;;
24787;SDS011;12883;52.662;5.196;2022-12-24T05:25:22;9.30;;;9.10;;
24787;SDS011;12883;52.662;5.196;2022-12-24T05:28:06;10.73;;;10.53;;
24787;SDS011;12883;52.662;5.196;2022-12-24T05:30:31;9.33;;;9.13;;
24787;SDS011;12883;52.662;5.196;2022-12-24T05:32:57;11.87;;;11.57;;
24787;SDS011;12883;52.662;5.196;2022-12-24T05:35:22;10.90;;;10.70;;
24787;SDS011;12883;52.662;5.196;2022-12-24T05:37:47;10.40;;;10.17;;
24787;SDS011;12883;52.662;5.196;2022-12-24T05:40:13;9.97;;;9.77;;
24787;SDS011;12883;52.662;5.196;2022-12-24T05:42:38;10.67;;;10.47;;
24787;SDS011;12883;52.662;5.196;2022-12-24T05:45:04;9.90;;;9.70;;
24787;SDS011;12883;52.662;5.196;2022-12-24T05:47:30;9.07;;;8.87;;
24787;SDS011;12883;52.662;5.196;2022-12-24T05:49:55;9.57;;;9.37;;
24787;SDS011;12883;52.662;5.196;2022-12-24T05:52:20;8.80;;;8.60;;
24787;SDS011;12883;52.662;5.196;2022-12-24T05:54:46;8.27;;;8.07;;
24787;SDS011;12883;52.662;5.196;2022-12-24T05:57:11;10.03;;;9.83;;
24787;SDS011;12883;52.662;5.196;2022-12-24T05:59:37;11.13;;;10.83;;
24787;SDS011;12883;52.662;5.196;2022-12-24T06:02:02;9.17;;;8.97;;
24787;SDS011;12883;52.662;5.196;2022-12-24T06:04:27;10.23;;;10.00;;
24787;SDS011;12883;52.662;5.196;2022-12-24T06:06:53;10.27;;;9.97;;
24787;SDS011;12883;52.662;5.196;2022-12-24T06:09:18;10.87;;;10.67;;
24787;SDS011;12883;52.662;5.196;2022-12-24T06:11:44;10.20;;;10.00;;
24787;SDS011;12883;52.662;5.196;2022-12-24T06:14:09;11.03;;;10.83;;
24787;SDS011;12883;52.662;5.196;2022-12-24T06:16:34;9.67;;;9.47;;
24787;SDS011;12883;52.662;5.196;2022-12-24T06:19:00;9.43;;;9.20;;
24787;SDS011;12883;52.662;5.196;2022-12-24T06:21:25;9.67;;;9.47;;
24787;SDS011;12883;52.662;5.196;2022-12-24T06:23:51;9.67;;;9.47;;
24787;SDS011;12883;52.662;5.196;2022-12-24T06:26:19;9.43;;;9.23;;
24787;SDS011;12883;52.662;5.196;2022-12-24T06:28:45;11.40;;;11.10;;
24787;SDS011;12883;52.662;5.196;2022-12-24T06:31:13;10.57;;;10.37;;
24787;SDS011;12883;52.662;5.196;2022-12-24T06:33:40;9.73;;;9.53;;
24787;SDS011;12883;52.662;5.196;2022-12-24T06:36:06;11.10;;;10.80;;
24787;SDS011;12883;52.662;5.196;2022-12-24T06:38:32;8.57;;;8.37;;
24787;SDS011;12883;52.662;5.196;2022-12-24T06:40:58;9.53;;;9.33;;
24787;SDS011;12883;52.662;5.196;2022-12-24T06:43:23;9.60;;;9.40;;
24787;SDS011;12883;52.662;5.196;2022-12-24T06:45:49;9.90;;;9.70;;
24787;SDS011;12883;52.662;5.196;2022-12-24T06:48:14;10.00;;;9.80;;
24787;SDS011;12883;52.662;5.196;2022-12-24T06:50:40;11.77;;;11.47;;
24787;SDS011;12883;52.662;5.196;2022-12-24T06:53:06;11.47;;;11.27;;
24787;SDS011;12883;52.662;5.196;2022-12-24T06:55:32;9.57;;;9.37;;
24787;SDS011;12883;52.662;5.196;2022-12-24T06:57:58;10.87;;;10.67;;
24787;SDS011;12883;52.662;5.196;2022-12-24T07:00:23;10.57;;;10.30;;
24787;SDS011;12883;52.662;5.196;2022-12-24T07:02:49;9.87;;;9.63;;
24787;SDS011;12883;52.662;5.196;2022-12-24T07:05:14;10.83;;;10.53;;
24787;SDS011;12883;52.662;5.196;2022-12-24T07:07:40;9.20;;;9.00;;
24787;SDS011;12883;52.662;5.196;2022-12-24T07:10:07;8.40;;;8.20;;
24787;SDS011;12883;52.662;5.196;2022-12-24T07:12:35;8.97;;;8.77;;
24787;SDS011;12883;52.662;5.196;2022-12-24T07:15:01;11.37;;;11.07;;
24787;SDS011;12883;52.662;5.196;2022-12-24T07:17:26;10.13;;;9.83;;
24787;SDS011;12883;52.662;5.196;2022-12-24T07:19:52;11.03;;;10.83;;
24787;SDS011;12883;52.662;5.196;2022-12-24T07:22:17;10.33;;;10.13;;
24787;SDS011;12883;52.662;5.196;2022-12-24T07:24:42;10.17;;;9.90;;
24787;SDS011;12883;52.662;5.196;2022-12-24T07:27:08;11.43;;;11.23;;
24787;SDS011;12883;52.662;5.196;2022-12-24T07:29:33;11.50;;;11.27;;
24787;SDS011;12883;52.662;5.196;2022-12-24T07:31:59;10.67;;;10.47;;
24787;SDS011;12883;52.662;5.196;2022-12-24T07:34:24;9.63;;;9.43;;
24787;SDS011;12883;52.662;5.196;2022-12-24T07:36:50;11.33;;;11.13;;
24787;SDS011;12883;52.662;5.196;2022-12-24T07:39:15;9.93;;;9.73;;
24787;SDS011;12883;52.662;5.196;2022-12-24T07:41:41;10.43;;;10.20;;
24787;SDS011;12883;52.662;5.196;2022-12-24T07:44:07;11.47;;;11.23;;
24787;SDS011;12883;52.662;5.196;2022-12-24T07:46:36;10.00;;;9.80;;
24787;SDS011;12883;52.662;5.196;2022-12-24T07:49:01;9.93;;;9.73;;
24787;SDS011;12883;52.662;5.196;2022-12-24T07:51:27;10.67;;;10.47;;
24787;SDS011;12883;52.662;5.196;2022-12-24T07:53:52;9.90;;;9.70;;
24787;SDS011;12883;52.662;5.196;2022-12-24T07:56:17;10.90;;;10.60;;
24787;SDS011;12883;52.662;5.196;2022-12-24T07:58:43;10.77;;;10.57;;
24787;SDS011;12883;52.662;5.196;2022-12-24T08:01:10;8.80;;;8.60;;
24787;SDS011;12883;52.662;5.196;2022-12-24T08:03:35;8.33;;;8.23;;
24787;SDS011;12883;52.662;5.196;2022-12-24T08:06:01;12.50;;;12.20;;
24787;SDS011;12883;52.662;5.196;2022-12-24T08:08:26;11.00;;;10.80;;
24787;SDS011;12883;52.662;5.196;2022-12-24T08:10:52;12.43;;;12.13;;
24787;SDS011;12883;52.662;5.196;2022-12-24T08:13:17;10.00;;;9.80;;
24787;SDS011;12883;52.662;5.196;2022-12-24T08:15:43;9.70;;;9.50;;
24787;SDS011;12883;52.662;5.196;2022-12-24T08:18:09;9.57;;;9.37;;
24787;SDS011;12883;52.662;5.196;2022-12-24T08:20:36;10.80;;;10.60;;
24787;SDS011;12883;52.662;5.196;2022-12-24T08:23:03;10.93;;;10.73;;
24787;SDS011;12883;52.662;5.196;2022-12-24T08:25:29;10.30;;;10.10;;
24787;SDS011;12883;52.662;5.196;2022-12-24T08:27:54;8.30;;;8.10;;
24787;SDS011;12883;52.662;5.196;2022-12-24T08:30:21;9.37;;;9.17;;
24787;SDS011;12883;52.662;5.196;2022-12-24T08:32:46;7.17;;;7.07;;
24787;SDS011;12883;52.662;5.196;2022-12-24T08:35:11;6.30;;;6.20;;
24787;SDS011;12883;52.662;5.196;2022-12-24T08:37:37;6.20;;;6.10;;
24787;SDS011;12883;52.662;5.196;2022-12-24T08:40:02;5.60;;;5.50;;
24787;SDS011;12883;52.662;5.196;2022-12-24T08:42:28;5.63;;;5.53;;
24787;SDS011;12883;52.662;5.196;2022-12-24T08:44:53;6.13;;;6.03;;
24787;SDS011;12883;52.662;5.196;2022-12-24T08:47:19;7.73;;;7.63;;
24787;SDS011;12883;52.662;5.196;2022-12-24T08:49:44;7.03;;;6.93;;
24787;SDS011;12883;52.662;5.196;2022-12-24T08:52:09;8.70;;;8.50;;
24787;SDS011;12883;52.662;5.196;2022-12-24T08:54:35;8.60;;;8.40;;
24787;SDS011;12883;52.662;5.196;2022-12-24T08:57:00;8.00;;;7.80;;
24787;SDS011;12883;52.662;5.196;2022-12-24T08:59:26;9.20;;;9.10;;
24787;SDS011;12883;52.662;5.196;2022-12-24T09:01:51;10.17;;;9.97;;
24787;SDS011;12883;52.662;5.196;2022-12-24T09:04:16;12.00;;;11.70;;
24787;SDS011;12883;52.662;5.196;2022-12-24T09:06:42;10.47;;;10.17;;
24787;SDS011;12883;52.662;5.196;2022-12-24T09:09:07;10.17;;;9.97;;
24787;SDS011;12883;52.662;5.196;2022-12-24T09:11:33;10.43;;;10.13;;
24787;SDS011;12883;52.662;5.196;2022-12-24T09:13:59;10.83;;;10.63;;
24787;SDS011;12883;52.662;5.196;2022-12-24T09:16:25;11.07;;;10.83;;
24787;SDS011;12883;52.662;5.196;2022-12-24T09:18:51;11.43;;;11.13;;
24787;SDS011;12883;52.662;5.196;2022-12-24T09:21:17;11.60;;;11.30;;
24787;SDS011;12883;52.662;5.196;2022-12-24T09:23:43;11.17;;;10.87;;
24787;SDS011;12883;52.662;5.196;2022-12-24T09:26:17;11.00;;;10.70;;
24787;SDS011;12883;52.662;5.196;2022-12-24T09:28:45;11.70;;;11.40;;
24787;SDS011;12883;52.662;5.196;2022-12-24T09:31:11;10.80;;;10.60;;
24787;SDS011;12883;52.662;5.196;2022-12-24T09:33:38;9.70;;;9.50;;
24787;SDS011;12883;52.662;5.196;2022-12-24T09:36:05;9.97;;;9.77;;
24787;SDS011;12883;52.662;5.196;2022-12-24T09:38:31;12.07;;;11.87;;
24787;SDS011;12883;52.662;5.196;2022-12-24T09:40:58;10.53;;;10.33;;
24787;SDS011;12883;52.662;5.196;2022-12-24T09:43:29;11.67;;;11.37;;
24787;SDS011;12883;52.662;5.196;2022-12-24T09:46:05;11.43;;;11.13;;
24787;SDS011;12883;52.662;5.196;2022-12-24T09:48:38;9.93;;;9.73;;
24787;SDS011;12883;52.662;5.196;2022-12-24T09:51:09;11.80;;;11.50;;
24787;SDS011;12883;52.662;5.196;2022-12-24T09:56:03;9.97;;;9.77;;
24787;SDS011;12883;52.662;5.196;2022-12-24T09:58:38;9.73;;;9.53;;
24787;SDS011;12883;52.662;5.196;2022-12-24T10:01:11;10.23;;;10.03;;
24787;SDS011;12883;52.662;5.196;2022-12-24T10:03:44;9.87;;;9.67;;
24787;SDS011;12883;52.662;5.196;2022-12-24T10:17:26;10.23;;;10.03;;
24787;SDS011;12883;52.662;5.196;2022-12-24T10:23:06;8.90;;;8.70;;
24787;SDS011;12883;52.662;5.196;2022-12-24T10:25:37;9.20;;;9.00;;
24787;SDS011;12883;52.662;5.196;2022-12-24T10:28:13;9.70;;;9.50;;
24787;SDS011;12883;52.662;5.196;2022-12-24T10:30:41;8.90;;;8.70;;
24787;SDS011;12883;52.662;5.196;2022-12-24T10:33:13;9.93;;;9.70;;
24787;SDS011;12883;52.662;5.196;2022-12-24T10:35:48;9.00;;;8.80;;
24787;SDS011;12883;52.662;5.196;2022-12-24T10:38:18;8.30;;;8.10;;
24787;SDS011;12883;52.662;5.196;2022-12-24T10:40:44;10.87;;;10.67;;
24787;SDS011;12883;52.662;5.196;2022-12-24T10:43:19;9.13;;;8.93;;
24787;SDS011;12883;52.662;5.196;2022-12-24T10:45:50;9.07;;;8.87;;
24787;SDS011;12883;52.662;5.196;2022-12-24T10:49:03;10.10;;;9.90;;
24787;SDS011;12883;52.662;5.196;2022-12-24T10:54:11;9.63;;;9.43;;
24787;SDS011;12883;52.662;5.196;2022-12-24T10:56:43;8.63;;;8.43;;
24787;SDS011;12883;52.662;5.196;2022-12-24T11:01:58;8.27;;;8.07;;
24787;SDS011;12883;52.662;5.196;2022-12-24T11:04:25;8.80;;;8.67;;
24787;SDS011;12883;52.662;5.196;2022-12-24T11:09:30;9.23;;;9.03;;
24787;SDS011;12883;52.662;5.196;2022-12-24T11:12:02;8.73;;;8.53;;
24787;SDS011;12883;52.662;5.196;2022-12-24T11:14:33;9.27;;;9.07;;
24787;SDS011;12883;52.662;5.196;2022-12-24T11:17:01;9.23;;;9.03;;
24787;SDS011;12883;52.662;5.196;2022-12-24T11:22:03;9.03;;;8.83;;
24787;SDS011;12883;52.662;5.196;2022-12-24T11:24:32;7.17;;;7.07;;
24787;SDS011;12883;52.662;5.196;2022-12-24T11:27:21;9.93;;;9.73;;
24787;SDS011;12883;52.662;5.196;2022-12-24T11:29:49;8.33;;;8.13;;
24787;SDS011;12883;52.662;5.196;2022-12-24T11:32:16;8.90;;;8.70;;
24787;SDS011;12883;52.662;5.196;2022-12-24T11:34:44;8.00;;;7.80;;
24787;SDS011;12883;52.662;5.196;2022-12-24T11:39:46;7.57;;;7.37;;
24787;SDS011;12883;52.662;5.196;2022-12-24T11:42:29;7.80;;;7.60;;
24787;SDS011;12883;52.662;5.196;2022-12-24T11:44:57;8.27;;;8.07;;
24787;SDS011;12883;52.662;5.196;2022-12-24T11:47:34;7.90;;;7.80;;
24787;SDS011;12883;52.662;5.196;2022-12-24T11:50:21;7.77;;;7.67;;
24787;SDS011;12883;52.662;5.196;2022-12-24T11:55:41;8.03;;;7.93;;
24787;SDS011;12883;52.662;5.196;2022-12-24T11:58:22;7.93;;;7.83;;
24787;SDS011;12883;52.662;5.196;2022-12-24T12:01:27;6.47;;;6.37;;
24787;SDS011;12883;52.662;5.196;2022-12-24T12:04:05;7.50;;;7.40;;
24787;SDS011;12883;52.662;5.196;2022-12-24T12:06:39;6.20;;;6.10;;
24787;SDS011;12883;52.662;5.196;2022-12-24T12:09:13;6.50;;;6.40;;
24787;SDS011;12883;52.662;5.196;2022-12-24T12:11:45;7.13;;;7.03;;
24787;SDS011;12883;52.662;5.196;2022-12-24T12:14:55;7.80;;;7.70;;
24787;SDS011;12883;52.662;5.196;2022-12-24T12:19:56;7.33;;;7.23;;
24787;SDS011;12883;52.662;5.196;2022-12-24T12:22:25;6.00;;;5.90;;
24787;SDS011;12883;52.662;5.196;2022-12-24T12:24:56;6.77;;;6.60;;
24787;SDS011;12883;52.662;5.196;2022-12-24T12:30:00;5.87;;;5.77;;
24787;SDS011;12883;52.662;5.196;2022-12-24T12:32:38;6.83;;;6.73;;
24787;SDS011;12883;52.662;5.196;2022-12-24T12:37:44;5.33;;;5.23;;
24787;SDS011;12883;52.662;5.196;2022-12-24T12:40:16;4.87;;;4.77;;
24787;SDS011;12883;52.662;5.196;2022-12-24T12:42:49;5.67;;;5.57;;
24787;SDS011;12883;52.662;5.196;2022-12-24T12:48:16;5.50;;;5.40;;
24787;SDS011;12883;52.662;5.196;2022-12-24T12:51:08;4.77;;;4.67;;
24787;SDS011;12883;52.662;5.196;2022-12-24T12:56:30;7.00;;;6.90;;
24787;SDS011;12883;52.662;5.196;2022-12-24T12:59:03;6.47;;;6.37;;
24787;SDS011;12883;52.662;5.196;2022-12-24T13:12:46;6.50;;;6.40;;
24787;SDS011;12883;52.662;5.196;2022-12-24T13:18:10;6.33;;;6.23;;
24787;SDS011;12883;52.662;5.196;2022-12-24T13:20:47;6.50;;;6.40;;
24787;SDS011;12883;52.662;5.196;2022-12-24T13:23:16;6.87;;;6.77;;
24787;SDS011;12883;52.662;5.196;2022-12-24T13:25:45;6.13;;;6.03;;
24787;SDS011;12883;52.662;5.196;2022-12-24T13:30:45;6.73;;;6.63;;
24787;SDS011;12883;52.662;5.196;2022-12-24T13:33:12;6.13;;;6.03;;
24787;SDS011;12883;52.662;5.196;2022-12-24T13:35:59;6.63;;;6.53;;
24787;SDS011;12883;52.662;5.196;2022-12-24T13:40:53;5.97;;;5.87;;
24787;SDS011;12883;52.662;5.196;2022-12-24T13:43:18;6.23;;;6.13;;
24787;SDS011;12883;52.662;5.196;2022-12-24T13:45:48;7.40;;;7.30;;
24787;SDS011;12883;52.662;5.196;2022-12-24T13:50:43;6.57;;;6.47;;
24787;SDS011;12883;52.662;5.196;2022-12-24T13:53:19;6.47;;;6.37;;
24787;SDS011;12883;52.662;5.196;2022-12-24T13:56:41;7.90;;;7.80;;
24787;SDS011;12883;52.662;5.196;2022-12-24T13:58:42;7.40;;;7.30;;
24787;SDS011;12883;52.662;5.196;2022-12-24T14:01:18;7.60;;;7.50;;
24787;SDS011;12883;52.662;5.196;2022-12-24T14:03:47;7.30;;;7.10;;
24787;SDS011;12883;52.662;5.196;2022-12-24T14:06:27;7.60;;;7.50;;
24787;SDS011;12883;52.662;5.196;2022-12-24T14:09:15;8.03;;;7.93;;
24787;SDS011;12883;52.662;5.196;2022-12-24T14:16:52;7.17;;;7.07;;
24787;SDS011;12883;52.662;5.196;2022-12-24T14:19:24;6.93;;;6.83;;
24787;SDS011;12883;52.662;5.196;2022-12-24T14:22:53;7.87;;;7.77;;
24787;SDS011;12883;52.662;5.196;2022-12-24T14:25:00;7.20;;;7.10;;
24787;SDS011;12883;52.662;5.196;2022-12-24T14:27:31;7.80;;;7.67;;
24787;SDS011;12883;52.662;5.196;2022-12-24T14:30:16;8.07;;;7.97;;
24787;SDS011;12883;52.662;5.196;2022-12-24T14:32:44;7.10;;;7.00;;
24787;SDS011;12883;52.662;5.196;2022-12-24T14:37:46;7.50;;;7.40;;
24787;SDS011;12883;52.662;5.196;2022-12-24T14:40:18;6.63;;;6.53;;
24787;SDS011;12883;52.662;5.196;2022-12-24T14:42:50;6.77;;;6.67;;
24787;SDS011;12883;52.662;5.196;2022-12-24T14:45:31;8.10;;;7.90;;
24787;SDS011;12883;52.662;5.196;2022-12-24T14:55:43;6.80;;;6.70;;
24787;SDS011;12883;52.662;5.196;2022-12-24T15:00:51;8.93;;;8.73;;
24787;SDS011;12883;52.662;5.196;2022-12-24T15:03:20;8.13;;;7.93;;
24787;SDS011;12883;52.662;5.196;2022-12-24T15:06:07;8.20;;;8.00;;
24787;SDS011;12883;52.662;5.196;2022-12-24T15:08:44;6.20;;;6.10;;
24787;SDS011;12883;52.662;5.196;2022-12-24T15:11:17;9.00;;;8.80;;
24787;SDS011;12883;52.662;5.196;2022-12-24T15:13:46;7.43;;;7.33;;
24787;SDS011;12883;52.662;5.196;2022-12-24T15:16:24;7.73;;;7.53;;
24787;SDS011;12883;52.662;5.196;2022-12-24T15:18:52;7.83;;;7.63;;
24787;SDS011;12883;52.662;5.196;2022-12-24T15:21:25;7.77;;;7.60;;
24787;SDS011;12883;52.662;5.196;2022-12-24T15:23:57;7.27;;;7.17;;
24787;SDS011;12883;52.662;5.196;2022-12-24T15:28:51;7.57;;;7.37;;
24787;SDS011;12883;52.662;5.196;2022-12-24T15:31:18;7.93;;;7.83;;
24787;SDS011;12883;52.662;5.196;2022-12-24T15:33:49;8.43;;;8.23;;
24787;SDS011;12883;52.662;5.196;2022-12-24T15:36:22;7.97;;;7.77;;
24787;SDS011;12883;52.662;5.196;2022-12-24T15:38:53;7.00;;;6.90;;
24787;SDS011;12883;52.662;5.196;2022-12-24T15:41:25;7.47;;;7.37;;
24787;SDS011;12883;52.662;5.196;2022-12-24T15:43:54;8.33;;;8.13;;
24787;SDS011;12883;52.662;5.196;2022-12-24T15:46:25;7.67;;;7.57;;
24787;SDS011;12883;52.662;5.196;2022-12-24T15:48:54;9.23;;;9.03;;
24787;SDS011;12883;52.662;5.196;2022-12-24T15:51:25;7.73;;;7.53;;
24787;SDS011;12883;52.662;5.196;2022-12-24T15:53:56;8.10;;;8.00;;
24787;SDS011;12883;52.662;5.196;2022-12-24T15:56:31;7.70;;;7.50;;
24787;SDS011;12883;52.662;5.196;2022-12-24T15:59:40;8.00;;;7.80;;
24787;SDS011;12883;52.662;5.196;2022-12-24T16:01:49;7.57;;;7.37;;
24787;SDS011;12883;52.662;5.196;2022-12-24T16:06:56;9.37;;;9.17;;
24787;SDS011;12883;52.662;5.196;2022-12-24T16:12:00;7.83;;;7.73;;
24787;SDS011;12883;52.662;5.196;2022-12-24T16:14:26;7.43;;;7.23;;
24787;SDS011;12883;52.662;5.196;2022-12-24T16:16:53;8.13;;;7.93;;
24787;SDS011;12883;52.662;5.196;2022-12-24T16:19:24;8.20;;;8.00;;
24787;SDS011;12883;52.662;5.196;2022-12-24T16:21:58;7.53;;;7.33;;
24787;SDS011;12883;52.662;5.196;2022-12-24T16:24:48;6.97;;;6.83;;
24787;SDS011;12883;52.662;5.196;2022-12-24T16:27:16;6.67;;;6.57;;
24787;SDS011;12883;52.662;5.196;2022-12-24T16:29:41;9.03;;;8.83;;
24787;SDS011;12883;52.662;5.196;2022-12-24T16:32:15;9.23;;;9.03;;
24787;SDS011;12883;52.662;5.196;2022-12-24T16:34:48;8.93;;;8.73;;
24787;SDS011;12883;52.662;5.196;2022-12-24T16:37:14;8.70;;;8.50;;
24787;SDS011;12883;52.662;5.196;2022-12-24T16:39:39;9.13;;;8.93;;
24787;SDS011;12883;52.662;5.196;2022-12-24T16:42:07;8.87;;;8.73;;
24787;SDS011;12883;52.662;5.196;2022-12-24T16:44:51;9.60;;;9.47;;